Time;durP1;ratioP1;P1;durP2;ratioP2;P2;SDS_P1;SDS_P2;PMS_P1;PMS_P2;Temp;Humidity;BMP_temperature;BMP_pressure;BME280_temperature;BME280_humidity;BME280_pressure;Samples;Min_cycle;Max_cycle;Signal;HPM_P1;HPM_P2
2023/12/07 00:00:00;;;;;;;0.50;0.50;;;;;;;6.34;100.00;96553.22;4987943;28;20054;-65
2023/12/07 00:02:27;;;;;;;0.52;0.52;;;;;;;5.87;100.00;96524.88;4988056;28;20139;-65
2023/12/07 00:04:53;;;;;;;0.50;0.50;;;;;;;5.98;100.00;96558.94;4987938;28;20450;-65
2023/12/07 00:07:20;;;;;;;0.50;0.50;;;;;;;5.83;100.00;96559.72;4987559;28;20046;-65
2023/12/07 00:09:47;;;;;;;0.50;0.50;;;;;;;5.89;100.00;96555.56;4987580;28;20051;-66
2023/12/07 00:12:14;;;;;;;0.50;0.50;;;;;;;5.74;100.00;96561.78;4987566;28;20046;-65
2023/12/07 00:14:41;;;;;;;0.52;0.52;;;;;;;5.78;100.00;96557.19;4992337;28;20058;-65
2023/12/07 00:17:08;;;;;;;0.52;0.52;;;;;;;5.92;100.00;96563.09;5025251;28;20574;-65
2023/12/07 00:19:35;;;;;;;0.50;0.50;;;;;;;6.03;100.00;96564.19;5026731;28;20084;-65
2023/12/07 00:22:02;;;;;;;0.50;0.50;;;;;;;5.75;100.00;96524.94;5026397;28;20128;-65
2023/12/07 00:24:30;;;;;;;0.60;0.60;;;;;;;6.01;100.00;96571.97;5026565;28;20050;-65
2023/12/07 00:26:57;;;;;;;0.50;0.50;;;;;;;5.18;100.00;96433.91;5024708;28;20061;-65
2023/12/07 00:29:24;;;;;;;0.60;0.60;;;;;;;5.97;100.00;96587.59;5026600;28;20049;-65
2023/12/07 00:31:51;;;;;;;0.50;0.50;;;;;;;5.94;100.00;96591.06;5026663;28;20053;-65
2023/12/07 00:34:18;;;;;;;0.50;0.50;;;;;;;5.84;100.00;96564.06;5026088;28;20060;-66
2023/12/07 00:36:45;;;;;;;0.60;0.60;;;;;;;6.01;100.00;96581.03;5025853;28;20049;-66
2023/12/07 00:39:12;;;;;;;0.50;0.50;;;;;;;5.89;100.00;96580.31;5024645;28;20535;-65
2023/12/07 00:41:39;;;;;;;0.50;0.50;;;;;;;5.64;100.00;96518.34;5024844;28;20318;-66
2023/12/07 00:44:06;;;;;;;0.50;0.50;;;;;;;5.70;100.00;96516.94;5026311;28;20127;-66
2023/12/07 00:46:32;;;;;;;0.50;0.50;;;;;;;6.19;100.00;96584.25;5025062;28;20061;-66
2023/12/07 00:48:59;;;;;;;0.50;0.50;;;;;;;6.16;100.00;96574.75;5024860;28;20059;-65
2023/12/07 00:51:26;;;;;;;0.50;0.50;;;;;;;6.16;100.00;96591.25;5024731;28;20059;-65
2023/12/07 00:53:53;;;;;;;0.50;0.50;;;;;;;6.21;100.00;96581.16;5026083;28;20060;-66
2023/12/07 00:56:20;;;;;;;0.50;0.50;;;;;;;6.15;100.00;96561.34;5025615;28;20512;-65
2023/12/07 00:58:47;;;;;;;0.50;0.50;;;;;;;6.14;100.00;96570.78;5026079;28;20053;-65
2023/12/07 01:01:14;;;;;;;0.52;0.52;;;;;;;5.78;100.00;96516.00;5024001;28;20111;-65
2023/12/07 01:03:40;;;;;;;0.57;0.57;;;;;;;6.04;100.00;96557.53;5024671;28;20130;-65
2023/12/07 01:06:07;;;;;;;0.50;0.50;;;;;;;6.08;100.00;96566.69;5025651;28;20054;-67
2023/12/07 01:08:34;;;;;;;0.60;0.60;;;;;;;6.08;100.00;96572.19;5024366;28;20053;-66
2023/12/07 01:11:02;;;;;;;0.50;0.50;;;;;;;5.65;100.00;96506.22;5025860;28;20057;-65
2023/12/07 01:13:28;;;;;;;0.50;0.50;;;;;;;6.02;100.00;96570.84;5025334;28;20051;-65
2023/12/07 01:15:55;;;;;;;0.60;0.60;;;;;;;5.71;100.00;96524.03;5011930;28;20544;-66
2023/12/07 01:18:22;;;;;;;0.50;0.50;;;;;;;5.98;100.00;96572.69;5004344;28;20088;-66
2023/12/07 01:20:49;;;;;;;0.52;0.52;;;;;;;5.52;100.00;96527.44;5001360;28;20099;-65
2023/12/07 01:23:16;;;;;;;0.50;0.50;;;;;;;5.85;100.00;96573.91;5024379;28;20527;-65
2023/12/07 01:25:43;;;;;;;0.50;0.50;;;;;;;5.88;100.00;96567.72;5025170;28;20068;-65
2023/12/07 01:28:09;;;;;;;0.60;0.60;;;;;;;5.86;100.00;96570.03;5025511;28;20554;-66
2023/12/07 01:30:36;;;;;;;0.50;0.50;;;;;;;5.43;100.00;96529.56;5025103;28;20065;-65
2023/12/07 01:33:03;;;;;;;0.50;0.50;;;;;;;5.73;100.00;96563.75;5023848;28;20544;-65
2023/12/07 01:35:30;;;;;;;0.57;0.57;;;;;;;5.35;100.00;96521.47;5023784;28;20436;-66
2023/12/07 01:37:57;;;;;;;0.50;0.50;;;;;;;5.29;100.00;96498.16;5023528;28;20061;-64
2023/12/07 01:40:24;;;;;;;0.50;0.50;;;;;;;5.68;100.00;96546.72;5024830;28;20045;-65
2023/12/07 01:42:52;;;;;;;0.50;0.50;;;;;;;5.63;100.00;96555.19;5023656;28;20050;-66
2023/12/07 01:45:20;;;;;;;0.50;0.50;;;;;;;5.70;100.00;96555.41;5025175;28;20049;-65
2023/12/07 01:47:49;;;;;;;0.50;0.50;;;;;;;5.71;100.00;96552.31;5025234;28;20111;-65
2023/12/07 01:50:17;;;;;;;0.50;0.50;;;;;;;5.69;100.00;96553.81;5025344;28;20073;-65
2023/12/07 01:52:47;;;;;;;0.50;0.50;;;;;;;5.59;100.00;96554.31;5024991;28;20503;-65
2023/12/07 01:55:15;;;;;;;0.50;0.50;;;;;;;5.48;100.00;96531.25;5024934;28;20063;-65
2023/12/07 01:57:44;;;;;;;0.50;0.50;;;;;;;5.33;100.00;96501.78;5025028;28;20713;-64
2023/12/07 02:00:15;;;;;;;0.50;0.50;;;;;;;5.73;100.00;96560.19;5024732;28;20149;-65
2023/12/07 02:02:43;;;;;;;0.50;0.50;;;;;;;5.69;100.00;96553.81;5023740;28;20881;-65
2023/12/07 02:05:10;;;;;;;0.50;0.50;;;;;;;5.64;100.00;96562.31;5025450;28;20060;-66
2023/12/07 02:07:37;;;;;;;0.60;0.60;;;;;;;5.18;100.00;96510.78;5025009;28;20428;-65
2023/12/07 02:10:04;;;;;;;0.50;0.50;;;;;;;5.66;100.00;96570.97;5023508;28;20495;-65
2023/12/07 02:12:31;;;;;;;0.50;0.50;;;;;;;5.58;100.00;96580.19;5022118;28;20140;-66
2023/12/07 02:14:58;;;;;;;0.45;0.45;;;;;;;5.26;100.00;96537.28;5024267;28;20440;-65
2023/12/07 02:17:52;;;;;;;0.50;0.50;;;;;;;5.55;100.00;96580.88;5024538;28;20053;-66
2023/12/07 02:20:35;;;;;;;0.50;0.50;;;;;;;5.46;100.00;96580.22;5024766;28;20516;-65
2023/12/07 02:23:04;;;;;;;0.40;0.40;;;;;;;5.41;100.00;96586.75;5023198;28;20132;-66
2023/12/07 02:28:41;;;;;;;0.45;0.45;;;;;;;5.37;100.00;96585.06;5004283;28;20945;-66
2023/12/07 02:31:08;;;;;;;0.50;0.50;;;;;;;5.30;100.00;96584.84;5004511;28;20050;-65
2023/12/07 02:50:30;;;;;;;0.40;0.40;;;;;;;4.61;100.00;96544.75;5005022;28;20057;-65
2023/12/07 02:52:57;;;;;;;0.50;0.50;;;;;;;4.94;100.00;96584.94;5005220;28;20069;-65
2023/12/07 02:55:24;;;;;;;0.50;0.50;;;;;;;5.05;100.00;96589.59;5004779;28;20464;-65
2023/12/07 02:57:51;;;;;;;0.50;0.50;;;;;;;5.03;100.00;96591.09;5004864;28;20089;-65
2023/12/07 03:00:18;;;;;;;0.40;0.40;;;;;;;5.11;100.00;96592.91;5005069;28;20058;-65
2023/12/07 03:02:45;;;;;;;0.50;0.50;;;;;;;5.17;100.00;96597.81;5004678;28;20060;-64
2023/12/07 03:05:11;;;;;;;0.50;0.50;;;;;;;4.83;100.00;96556.38;5003465;28;20518;-65
2023/12/07 03:07:38;;;;;;;0.50;0.50;;;;;;;5.00;100.00;96597.25;5003088;28;20157;-64
2023/12/07 03:10:05;;;;;;;0.40;0.40;;;;;;;5.05;100.00;96595.09;5004611;28;20073;-65
2023/12/07 03:12:32;;;;;;;0.50;0.50;;;;;;;5.06;100.00;96591.19;5004481;28;20050;-65
2023/12/07 03:14:59;;;;;;;0.45;0.45;;;;;;;4.90;100.00;96581.28;5004940;28;20552;-65
2023/12/07 03:17:26;;;;;;;0.50;0.50;;;;;;;4.93;100.00;96575.09;5024276;28;20045;-65
2023/12/07 03:19:53;;;;;;;0.40;0.40;;;;;;;4.89;100.00;96579.66;5023892;28;20156;-66
2023/12/07 03:22:19;;;;;;;0.45;0.45;;;;;;;5.02;100.00;96592.25;5022828;28;20053;-65
2023/12/07 03:24:50;;;;;;;0.47;0.47;;;;;;;5.12;100.00;96600.00;5027569;28;20053;-65
2023/12/07 03:27:17;;;;;;;0.50;0.50;;;;;;;5.04;100.00;96598.19;5026272;28;20143;-67
2023/12/07 03:29:44;;;;;;;0.40;0.40;;;;;;;5.00;100.00;96605.50;5026391;28;20104;-65
2023/12/07 03:32:10;;;;;;;0.47;0.47;;;;;;;5.09;100.00;96606.19;5026239;28;20045;-66
2023/12/07 03:34:37;;;;;;;0.40;0.40;;;;;;;4.58;100.00;96547.38;5027423;28;20252;-66
2023/12/07 03:37:04;;;;;;;0.40;0.40;;;;;;;4.98;100.00;96596.84;5025457;28;20140;-65
2023/12/07 03:39:32;;;;;;;0.40;0.40;;;;;;;4.65;100.00;96547.59;5026972;28;20609;-66
2023/12/07 03:42:00;;;;;;;0.47;0.47;;;;;;;4.86;100.00;96561.97;5027485;28;20061;-66
2023/12/07 03:44:26;;;;;;;0.40;0.40;;;;;;;4.68;100.00;96539.47;5026905;28;20145;-65
2023/12/07 03:46:55;;;;;;;0.43;0.43;;;;;;;4.60;100.00;96532.16;5026903;28;20240;-65
2023/12/07 03:49:22;;;;;;;0.50;0.50;;;;;;;4.94;100.00;96595.91;5027093;28;20487;-66
2023/12/07 03:51:48;;;;;;;0.50;0.50;;;;;;;5.00;100.00;96587.09;5027160;28;20160;-67
2023/12/07 03:54:15;;;;;;;0.50;0.50;;;;;;;5.00;100.00;96591.78;5027410;28;20060;-65
2023/12/07 03:56:42;;;;;;;0.40;0.40;;;;;;;4.48;100.00;96569.75;5026915;28;20155;-66
2023/12/07 03:59:09;;;;;;;0.50;0.50;;;;;;;4.63;100.00;96583.59;5025710;28;20611;-65
2023/12/07 04:01:35;;;;;;;0.40;0.40;;;;;;;4.72;100.00;96579.91;5013633;28;20058;-65
2023/12/07 04:04:02;;;;;;;0.50;0.50;;;;;;;4.57;100.00;96565.75;5007266;28;20244;-65
2023/12/07 04:06:29;;;;;;;0.40;0.40;;;;;;;4.70;100.00;96572.03;5005598;28;20061;-67
2023/12/07 04:08:56;;;;;;;0.40;0.40;;;;;;;3.82;100.00;96453.25;5007030;28;20085;-66
2023/12/07 04:11:23;;;;;;;0.40;0.40;;;;;;;4.50;100.00;96579.22;5006707;28;20053;-66
2023/12/07 04:13:50;;;;;;;0.40;0.40;;;;;;;4.44;100.00;96569.63;5005648;28;20128;-67
2023/12/07 04:16:17;;;;;;;0.40;0.40;;;;;;;3.98;100.00;96512.50;5016835;28;20418;-65
2023/12/07 04:18:43;;;;;;;0.47;0.47;;;;;;;4.30;100.00;96574.66;5025339;28;20132;-65
2023/12/07 04:21:10;;;;;;;0.40;0.40;;;;;;;4.33;100.00;96573.97;5016468;28;20060;-66
2023/12/07 04:23:37;;;;;;;0.40;0.40;;;;;;;4.29;100.00;96567.59;5025408;28;20473;-65
2023/12/07 04:26:04;;;;;;;0.40;0.40;;;;;;;3.72;100.00;96470.94;5025296;28;20466;-65
2023/12/07 04:28:31;;;;;;;0.40;0.40;;;;;;;3.97;100.00;96505.44;5026805;28;20076;-66
2023/12/07 04:30:58;;;;;;;0.40;0.40;;;;;;;4.37;100.00;96596.03;5026486;28;20053;-67
2023/12/07 04:33:24;;;;;;;0.50;0.50;;;;;;;4.39;100.00;96578.09;5026596;28;20046;-65
2023/12/07 04:35:51;;;;;;;0.50;0.50;;;;;;;4.45;100.00;96582.22;5025160;28;20053;-66
2023/12/07 04:38:18;;;;;;;0.40;0.40;;;;;;;4.14;100.00;96538.09;5024859;28;20064;-67
2023/12/07 04:40:45;;;;;;;0.50;0.50;;;;;;;4.53;100.00;96583.25;5024658;28;20053;-65
2023/12/07 04:43:12;;;;;;;0.40;0.40;;;;;;;4.47;100.00;96590.88;5026461;28;20140;-66
2023/12/07 04:45:39;;;;;;;0.40;0.40;;;;;;;4.34;100.00;96570.13;5024923;28;20054;-66
2023/12/07 04:48:06;;;;;;;0.40;0.40;;;;;;;3.45;100.00;96416.81;5026421;28;20053;-65
2023/12/07 04:50:33;;;;;;;0.40;0.40;;;;;;;4.51;100.00;96591.00;5026116;28;20054;-65
2023/12/07 04:52:59;;;;;;;0.40;0.40;;;;;;;4.35;100.00;96549.78;5025938;28;20132;-66
2023/12/07 04:55:26;;;;;;;0.40;0.40;;;;;;;3.91;100.00;96500.50;5026033;28;20057;-65
2023/12/07 04:57:53;;;;;;;0.40;0.40;;;;;;;4.53;100.00;96595.03;5025216;28;20543;-65
2023/12/07 05:00:21;;;;;;;0.50;0.50;;;;;;;3.94;100.00;96497.09;5025585;28;20050;-65
2023/12/07 05:02:48;;;;;;;0.40;0.40;;;;;;;4.46;100.00;96600.25;5025770;28;20053;-65
2023/12/07 05:05:15;;;;;;;0.40;0.40;;;;;;;4.23;100.00;96610.06;5024438;28;20045;-64
2023/12/07 05:07:42;;;;;;;0.40;0.40;;;;;;;4.16;100.00;96623.53;5025647;28;20053;-64
2023/12/07 05:10:09;;;;;;;0.40;0.40;;;;;;;4.19;100.00;96611.88;5025213;28;20581;-66
2023/12/07 05:12:36;;;;;;;0.40;0.40;;;;;;;4.13;100.00;96621.47;5024079;28;20056;-65
2023/12/07 05:15:05;;;;;;;0.40;0.40;;;;;;;4.00;100.00;96619.81;5025621;28;20930;-65
2023/12/07 05:17:32;;;;;;;0.40;0.40;;;;;;;3.70;100.00;96569.06;5006051;28;20514;-66
2023/12/07 05:19:59;;;;;;;0.40;0.40;;;;;;;4.11;100.00;96628.44;5004534;28;20058;-65
2023/12/07 05:22:26;;;;;;;0.40;0.40;;;;;;;3.41;100.00;96519.13;5006353;28;20058;-66
2023/12/07 05:24:54;;;;;;;0.40;0.40;;;;;;;4.12;100.00;96627.28;5004443;28;20057;-66
2023/12/07 05:27:21;;;;;;;0.50;0.50;;;;;;;4.20;100.00;96634.63;5006100;28;20061;-65
2023/12/07 05:29:48;;;;;;;0.40;0.40;;;;;;;4.04;100.00;96622.69;5006229;28;20054;-66
2023/12/07 05:32:15;;;;;;;0.45;0.45;;;;;;;4.19;100.00;96628.31;5005673;28;20100;-66
2023/12/07 05:34:42;;;;;;;0.40;0.40;;;;;;;4.25;100.00;96637.94;5005972;28;20073;-66
2023/12/07 05:37:09;;;;;;;0.40;0.40;;;;;;;3.86;100.00;96570.03;5005760;28;20068;-66
2023/12/07 05:39:35;;;;;;;0.40;0.40;;;;;;;3.94;100.00;96584.75;5006020;28;20062;-66
2023/12/07 05:42:04;;;;;;;0.40;0.40;;;;;;;4.20;100.00;96642.84;4990106;28;20061;-67
2023/12/07 05:44:31;;;;;;;0.40;0.40;;;;;;;3.78;100.00;96622.94;5005337;28;20054;-65
2023/12/07 05:46:58;;;;;;;0.40;0.40;;;;;;;3.98;100.00;96644.00;5003184;28;20057;-66
2023/12/07 05:49:25;;;;;;;0.40;0.40;;;;;;;3.75;100.00;96607.19;5004012;28;20090;-66
2023/12/07 05:51:52;;;;;;;0.50;0.50;;;;;;;4.12;100.00;96644.53;5004650;28;20046;-67
2023/12/07 05:54:22;;;;;;;0.40;0.40;;;;;;;4.06;100.00;96645.88;5004887;28;20081;-65
2023/12/07 05:56:49;;;;;;;0.40;0.40;;;;;;;2.08;100.00;96357.19;5004179;28;20064;-65
2023/12/07 05:59:16;;;;;;;0.40;0.40;;;;;;;4.01;100.00;96648.84;5004102;28;20061;-66
2023/12/07 06:01:43;;;;;;;0.40;0.40;;;;;;;4.09;100.00;96661.66;5004273;28;20061;-65
2023/12/07 06:04:11;;;;;;;0.40;0.40;;;;;;;3.77;100.00;96631.50;5003923;28;20488;-66
2023/12/07 06:06:39;;;;;;;0.40;0.40;;;;;;;3.94;100.00;96667.75;5003549;28;20064;-66
2023/12/07 06:09:06;;;;;;;0.40;0.40;;;;;;;3.43;100.00;96627.13;5003583;28;20054;-66
2023/12/07 06:11:33;;;;;;;0.35;0.35;;;;;;;3.97;100.00;96667.09;5003510;28;20062;-66
2023/12/07 06:14:01;;;;;;;0.40;0.40;;;;;;;3.60;100.00;96596.88;5003701;28;20492;-65
2023/12/07 06:16:28;;;;;;;0.40;0.40;;;;;;;3.85;100.00;96627.88;5012776;28;20055;-65
2023/12/07 06:18:54;;;;;;;0.40;0.40;;;;;;;4.09;100.00;96650.69;5022683;28;20508;-64
2023/12/07 06:21:21;;;;;;;0.40;0.40;;;;;;;4.33;100.00;96667.19;5023650;28;20073;-66
2023/12/07 06:23:48;;;;;;;0.40;0.40;;;;;;;4.12;100.00;96622.63;5024482;28;20169;-65
2023/12/07 06:26:16;;;;;;;0.40;0.40;;;;;;;4.38;100.00;96666.16;5024182;28;20063;-65
2023/12/07 06:28:44;;;;;;;0.40;0.40;;;;;;;4.51;100.00;96678.75;5024570;28;20057;-65
2023/12/07 06:31:12;;;;;;;0.40;0.40;;;;;;;4.57;100.00;96682.88;5022820;28;20436;-67
2023/12/07 06:33:40;;;;;;;0.50;0.50;;;;;;;2.54;100.00;96334.31;5023256;28;20120;-67
2023/12/07 06:36:07;;;;;;;0.50;0.50;;;;;;;4.62;100.00;96686.22;5024879;28;20084;-65
2023/12/07 06:38:34;;;;;;;0.50;0.50;;;;;;;4.75;100.00;96689.78;5023900;28;20072;-65
2023/12/07 06:41:00;;;;;;;0.47;0.47;;;;;;;4.93;100.00;96680.19;5024047;28;20083;-66
2023/12/07 06:43:27;;;;;;;0.40;0.40;;;;;;;4.68;100.00;96635.47;5024754;28;20059;-65
2023/12/07 06:45:54;;;;;;;0.50;0.50;;;;;;;5.02;100.00;96688.28;5022813;28;20328;-66
2023/12/07 06:48:21;;;;;;;0.50;0.50;;;;;;;5.10;100.00;96690.94;5014103;28;20060;-68
2023/12/07 06:50:48;;;;;;;0.50;0.50;;;;;;;5.11;100.00;96697.19;5004730;28;20057;-68
2023/12/07 06:53:15;;;;;;;0.50;0.50;;;;;;;4.59;100.00;96592.84;5007092;28;20115;-67
2023/12/07 06:55:43;;;;;;;0.50;0.50;;;;;;;5.06;100.00;96657.06;5018754;28;20166;-67
2023/12/07 06:58:11;;;;;;;0.50;0.50;;;;;;;5.36;100.00;96690.56;5019353;28;20046;-60
2023/12/07 07:00:38;;;;;;;0.50;0.50;;;;;;;5.45;100.00;96699.47;5006581;28;20069;-61
2023/12/07 07:03:06;;;;;;;0.50;0.50;;;;;;;4.81;100.00;96610.78;5011362;28;20103;-69
2023/12/07 07:05:33;;;;;;;0.50;0.50;;;;;;;5.58;99.58;96706.56;5026424;28;20543;-74
2023/12/07 07:08:00;;;;;;;0.50;0.50;;;;;;;4.90;97.92;96598.53;5022785;28;20061;-70
2023/12/07 07:10:27;;;;;;;0.50;0.50;;;;;;;4.81;98.21;96577.84;5027681;28;20049;-64
2023/12/07 07:12:54;;;;;;;0.50;0.50;;;;;;;5.83;98.80;96713.63;5025784;28;20045;-63
2023/12/07 07:15:20;;;;;;;0.55;0.55;;;;;;;5.37;97.67;96672.94;5025448;28;20045;-66
2023/12/07 07:17:47;;;;;;;0.50;0.50;;;;;;;4.40;99.17;96543.25;5019687;28;20421;-65
2023/12/07 07:20:14;;;;;;;0.50;0.50;;;;;;;4.81;98.95;96606.09;5020323;28;20160;-65
2023/12/07 07:22:41;;;;;;;0.50;0.50;;;;;;;5.79;97.95;96716.22;5007648;28;20054;-70
2023/12/07 07:25:08;;;;;;;0.50;0.50;;;;;;;5.23;96.66;96612.09;5012241;28;20115;-65
2023/12/07 07:27:35;;;;;;;0.50;0.50;;;;;;;5.64;97.41;96677.69;5009795;28;20063;-68
2023/12/07 07:30:04;;;;;;;0.60;0.60;;;;;;;5.88;97.70;96727.13;5006542;28;20057;-64
2023/12/07 07:32:31;;;;;;;0.50;0.50;;;;;;;5.99;99.78;96722.75;5019583;28;20041;-64
2023/12/07 07:34:59;;;;;;;0.52;0.52;;;;;;;4.05;99.11;96397.66;5019747;28;20505;-69
2023/12/07 07:37:26;;;;;;;0.50;0.50;;;;;;;5.75;99.66;96673.31;5024096;28;20512;-74
2023/12/07 07:39:53;;;;;;;0.50;0.50;;;;;;;5.96;99.14;96684.94;5026664;28;20068;-68
2023/12/07 07:42:20;;;;;;;0.60;0.60;;;;;;;5.31;99.61;96579.00;5024418;28;20044;-68
2023/12/07 07:44:47;;;;;;;0.50;0.50;;;;;;;6.38;98.50;96724.66;5010792;28;20050;-62
2023/12/07 07:47:14;;;;;;;0.50;0.50;;;;;;;6.14;98.39;96687.06;5018909;28;20057;-63
2023/12/07 07:49:40;;;;;;;0.60;0.60;;;;;;;5.69;99.21;96597.78;5018045;28;20108;-64
2023/12/07 07:52:08;;;;;;;0.60;0.60;;;;;;;6.55;98.98;96699.56;5006455;28;20053;-64
2023/12/07 07:54:36;;;;;;;0.60;0.60;;;;;;;7.07;99.60;96719.41;5020670;28;20041;-63
2023/12/07 07:57:04;;;;;;;0.55;0.55;;;;;;;7.38;100.00;96724.88;5026323;28;20053;-69
2023/12/07 07:59:31;;;;;;;0.60;0.60;;;;;;;7.66;96.91;96717.28;5020670;28;20050;-62
2023/12/07 08:01:58;;;;;;;0.60;0.60;;;;;;;6.97;96.01;96601.53;5006646;28;20060;-69
2023/12/07 08:04:25;;;;;;;0.63;0.63;;;;;;;8.12;94.92;96721.06;5025601;28;20101;-65
2023/12/07 08:06:51;;;;;;;0.60;0.60;;;;;;;8.19;94.05;96720.41;5023438;28;20133;-63
2023/12/07 08:09:18;;;;;;;0.63;0.63;;;;;;;8.30;92.87;96721.47;5026157;28;20167;-60
2023/12/07 08:11:45;;;;;;;0.60;0.60;;;;;;;8.33;91.32;96727.03;5025211;28;20049;-69
2023/12/07 08:14:13;;;;;;;0.70;0.70;;;;;;;8.11;91.80;96649.69;5023865;28;20045;-67
2023/12/07 08:16:44;;;;;;;0.60;0.60;;;;;;;8.02;91.52;96593.94;5024274;28;20049;-64
2023/12/07 08:19:11;;;;;;;0.70;0.70;;;;;;;8.99;90.29;96732.25;5025976;28;20084;-64
2023/12/07 08:21:38;;;;;;;0.70;0.70;;;;;;;8.80;88.37;96674.31;5026093;28;20144;-70
2023/12/07 08:24:05;;;;;;;0.70;0.70;;;;;;;9.26;87.95;96724.81;5021301;28;20136;-65
2023/12/07 08:26:32;;;;;;;0.77;0.77;;;;;;;9.18;86.52;96713.63;5017063;28;20527;-66
2023/12/07 08:28:59;;;;;;;0.70;0.70;;;;;;;9.00;86.05;96650.97;5024568;28;20049;-61
2023/12/07 08:31:26;;;;;;;0.70;0.70;;;;;;;9.41;85.21;96716.38;5018898;28;20045;-66
2023/12/07 08:33:53;;;;;;;0.70;0.70;;;;;;;9.57;85.56;96719.81;5018399;28;20061;-68
2023/12/07 08:36:20;;;;;;;0.70;0.70;;;;;;;9.60;84.17;96735.66;5005716;28;20081;-61
2023/12/07 08:38:47;;;;;;;0.75;0.75;;;;;;;9.10;84.66;96658.66;5012304;28;20057;-62
2023/12/07 08:41:14;;;;;;;0.75;0.75;;;;;;;9.48;85.22;96699.94;5017179;28;20053;-67
2023/12/07 08:43:41;;;;;;;0.70;0.70;;;;;;;9.49;85.53;96687.69;5028379;28;20509;-61
2023/12/07 08:46:08;;;;;;;0.75;0.75;;;;;;;9.76;85.07;96722.47;5013611;28;20050;-60
2023/12/07 08:48:37;;;;;;;0.80;0.80;;;;;;;10.01;84.29;96729.16;5011304;28;20061;-63
2023/12/07 08:51:08;;;;;;;0.80;0.80;;;;;;;10.09;82.12;96725.34;5004512;28;20050;-61
2023/12/07 08:53:35;;;;;;;0.73;0.73;;;;;;;9.48;83.69;96633.56;5009171;28;20100;-63
2023/12/07 08:56:03;;;;;;;0.70;0.70;;;;;;;9.77;83.33;96657.69;5008919;28;20800;-67
2023/12/07 08:58:29;;;;;;;0.80;0.80;;;;;;;10.19;83.41;96702.56;5008213;28;20497;-64
2023/12/07 09:00:56;;;;;;;0.73;0.73;;;;;;;10.10;82.14;96679.88;5011510;28;20045;-65
2023/12/07 09:03:31;;;;;;;0.80;0.80;;;;;;;10.44;81.62;96708.38;5018143;28;20045;-64
2023/12/07 09:06:00;;;;;;;0.80;0.80;;;;;;;10.49;81.21;96708.88;5020478;28;20054;-64
2023/12/07 09:08:27;;;;;;;0.80;0.80;;;;;;;10.57;80.57;96713.28;5025050;28;20138;-63
2023/12/07 09:10:54;;;;;;;0.80;0.80;;;;;;;10.26;80.93;96658.34;5025858;28;20265;-63
2023/12/07 09:13:20;;;;;;;0.80;0.80;;;;;;;9.66;81.06;96550.88;5025121;28;20049;-65
2023/12/07 09:15:47;;;;;;;0.80;0.80;;;;;;;10.05;81.20;96568.72;5024141;28;20054;-65
2023/12/07 09:18:14;;;;;;;0.80;0.80;;;;;;;10.37;80.57;96642.66;5024746;28;20045;-63
2023/12/07 09:20:45;;;;;;;0.80;0.80;;;;;;;10.53;81.17;96653.50;5023288;28;20552;-64
2023/12/07 09:23:14;;;;;;;0.90;0.90;;;;;;;10.86;81.97;96666.50;5016816;28;20094;-65
2023/12/07 09:25:42;;;;;;;0.80;0.80;;;;;;;11.28;81.21;96698.19;5024927;28;20064;-65
2023/12/07 09:28:09;;;;;;;0.90;0.90;;;;;;;11.41;79.87;96690.38;5023675;28;20468;-65
2023/12/07 09:30:36;;;;;;;0.90;0.90;;;;;;;11.49;80.05;96697.56;5024015;28;20151;-64
2023/12/07 09:33:03;;;;;;;0.85;0.85;;;;;;;11.64;79.99;96696.50;5025237;28;20057;-65
2023/12/07 09:35:30;;;;;;;0.90;0.90;;;;;;;11.69;77.63;96685.06;5025027;28;20061;-65
2023/12/07 09:37:57;;;;;;;1.00;1.00;;;;;;;11.71;77.50;96688.25;5024542;28;20062;-66
2023/12/07 09:40:25;;;;;;;0.93;0.93;;;;;;;11.55;76.29;96651.63;5023604;28;20053;-64
2023/12/07 09:42:52;;;;;;;0.90;0.90;;;;;;;11.91;77.51;96687.59;5022997;28;20377;-65
2023/12/07 09:45:20;;;;;;;0.93;0.93;;;;;;;11.42;77.54;96615.09;5025181;28;20164;-64
2023/12/07 09:47:52;;;;;;;1.00;1.00;;;;;;;12.02;76.30;96665.44;5024122;28;20136;-64
2023/12/07 09:50:24;;;;;;;0.90;0.90;;;;;;;12.03;72.94;96686.44;5023437;28;20064;-65
2023/12/07 09:52:55;;;;;;;0.90;0.90;;;;;;;11.81;72.51;96660.56;5024854;28;20057;-65
2023/12/07 09:55:34;;;;;;;0.90;0.90;;;;;;;12.03;72.70;96678.91;5024863;28;20136;-65
2023/12/07 09:58:04;;;;;;;0.90;0.90;;;;;;;12.38;73.18;96671.97;5020976;28;20049;-66
2023/12/07 10:00:33;;;;;;;0.90;0.90;;;;;;;12.37;70.88;96637.00;5005129;28;20057;-64
2023/12/07 10:03:00;;;;;;;0.95;0.95;;;;;;;12.42;69.62;96634.66;5005347;28;20049;-65
2023/12/07 10:05:27;;;;;;;1.00;1.00;;;;;;;12.63;67.73;96673.63;5005116;28;20062;-64
2023/12/07 10:07:54;;;;;;;1.00;1.00;;;;;;;12.02;70.55;96668.22;5003376;28;20531;-64
2023/12/07 10:10:21;;;;;;;1.00;1.00;;;;;;;12.37;71.01;96670.34;5004829;28;20050;-63
2023/12/07 10:12:50;;;;;;;1.08;1.08;;;;;;;11.60;70.76;96518.13;5003190;28;20050;-64
2023/12/07 10:15:19;;;;;;;1.00;1.00;;;;;;;12.67;70.92;96674.44;5004866;28;20053;-65
2023/12/07 10:17:50;;;;;;;1.05;1.05;;;;;;;12.94;71.15;96667.34;5016897;28;20178;-64
2023/12/07 10:20:25;;;;;;;1.00;1.00;;;;;;;13.02;69.47;96674.53;5003591;28;20172;-63
2023/12/07 10:23:09;;;;;;;0.93;0.93;;;;;;;13.03;68.00;96662.22;5002928;28;20674;-64
2023/12/07 10:25:38;;;;;;;1.05;1.05;;;;;;;13.04;67.08;96654.69;5004391;28;20089;-63
2023/12/07 10:28:07;;;;;;;1.10;1.10;;;;;;;13.03;68.33;96653.88;5004372;28;20085;-64
2023/12/07 10:30:35;;;;;;;1.10;1.10;;;;;;;10.64;67.11;96270.25;5003504;28;20085;-65
2023/12/07 10:33:07;;;;;;;1.20;1.20;;;;;;;13.16;68.50;96652.31;5005866;28;20053;-64
2023/12/07 10:35:41;;;;;;;1.00;1.00;;;;;;;13.14;68.56;96649.13;5007547;28;20057;-65
2023/12/07 10:38:09;;;;;;;1.10;1.10;;;;;;;12.48;64.42;96649.75;5007926;28;20141;-63
2023/12/07 10:40:36;;;;;;;1.00;1.00;;;;;;;11.76;67.04;96552.69;5008958;28;20057;-64
2023/12/07 10:43:08;;;;;;;1.00;1.00;;;;;;;12.34;65.53;96641.38;5007245;28;20054;-65
2023/12/07 10:45:37;;;;;;;1.05;1.05;;;;;;;12.61;66.76;96634.31;5008688;28;20061;-63
2023/12/07 10:48:09;;;;;;;0.98;0.98;;;;;;;10.71;66.31;96308.25;5008057;28;20409;-63
2023/12/07 10:50:50;;;;;;;1.00;1.00;;;;;;;12.89;66.00;96642.72;5023431;28;20081;-64
2023/12/07 10:53:27;;;;;;;1.00;1.00;;;;;;;12.63;64.38;96606.91;5007975;28;20592;-62
2023/12/07 10:56:00;;;;;;;1.10;1.10;;;;;;;12.57;64.61;96582.69;5006990;28;20061;-64
2023/12/07 10:58:27;;;;;;;1.00;1.00;;;;;;;12.35;64.27;96556.88;2172120;28;10002023;-63
2023/12/07 11:00:57;;;;;;;1.10;1.10;;;;;;;12.80;65.99;96642.31;4966422;28;20140;-65
2023/12/07 11:03:25;;;;;;;1.00;1.00;;;;;;;12.43;66.67;96602.91;4993779;28;20061;-64
2023/12/07 11:05:52;;;;;;;1.00;1.00;;;;;;;12.30;66.47;96648.91;5008320;28;20092;-63
2023/12/07 11:08:32;;;;;;;1.10;1.10;;;;;;;12.46;67.97;96641.03;5007823;28;20180;-64
2023/12/07 11:11:03;;;;;;;1.08;1.08;;;;;;;12.74;66.90;96646.66;5007869;28;20062;-66
2023/12/07 11:13:33;;;;;;;1.10;1.10;;;;;;;12.76;66.06;96641.50;5005933;28;20128;-64
2023/12/07 11:16:00;;;;;;;0.90;0.90;;;;;;;11.84;67.54;96625.66;5007713;28;20057;-63
2023/12/07 11:18:28;;;;;;;1.00;1.00;;;;;;;11.88;68.47;96582.09;5001694;28;20086;-62
2023/12/07 11:20:56;;;;;;;1.00;1.00;;;;;;;11.70;68.00;96532.06;4988400;28;20488;-65
2023/12/07 11:23:23;;;;;;;1.00;1.00;;;;;;;12.34;68.22;96637.81;4986579;28;20538;-64
2023/12/07 11:25:53;;;;;;;0.95;0.95;;;;;;;10.94;68.57;96454.81;4987854;28;20528;-65
2023/12/07 11:28:34;;;;;;;0.90;0.90;;;;;;;11.67;68.35;96626.38;4987930;28;20058;-64
2023/12/07 11:31:02;;;;;;;1.10;1.10;;;;;;;11.52;71.63;96633.00;4987026;28;20062;-64
2023/12/07 11:33:30;;;;;;;0.90;0.90;;;;;;;11.97;70.53;96629.72;4988201;28;20043;-64
2023/12/07 11:36:00;;;;;;;1.00;1.00;;;;;;;12.29;69.59;96635.41;4988148;28;20532;-63
2023/12/07 11:38:26;;;;;;;0.90;0.90;;;;;;;12.18;67.43;96619.50;4987603;28;20054;-63
2023/12/07 11:40:55;;;;;;;1.00;1.00;;;;;;;11.90;66.73;96626.91;4988080;28;20065;-64
2023/12/07 11:43:40;;;;;;;1.00;1.00;;;;;;;11.54;69.37;96633.41;4987573;28;20429;-63
2023/12/07 11:46:07;;;;;;;0.88;0.88;;;;;;;11.07;69.37;96630.66;4987965;28;20069;-64
2023/12/07 11:48:34;;;;;;;0.90;0.90;;;;;;;10.87;69.50;96626.53;4987814;28;20406;-63
2023/12/07 11:51:04;;;;;;;0.90;0.90;;;;;;;10.67;68.55;96628.72;4988175;28;20203;-63
2023/12/07 11:53:33;;;;;;;0.80;0.80;;;;;;;10.64;69.97;96630.28;4987178;28;20070;-63
2023/12/07 11:56:02;;;;;;;0.80;0.80;;;;;;;10.22;71.15;96629.84;4986267;28;20066;-62